sensor_id;sensor_type;location;lat;lon;timestamp;P1;durP1;ratioP1;P2;durP2;ratioP2
4700;SDS011;8724;51.272;6.554;2023-06-24T00:01:57;5.10;;;4.60;;
4700;SDS011;8724;51.272;6.554;2023-06-24T00:04:26;5.10;;;4.70;;
4700;SDS011;8724;51.272;6.554;2023-06-24T00:06:54;5.17;;;4.67;;
4700;SDS011;8724;51.272;6.554;2023-06-24T00:09:27;5.00;;;4.60;;
4700;SDS011;8724;51.272;6.554;2023-06-24T00:11:56;5.63;;;5.23;;
4700;SDS011;8724;51.272;6.554;2023-06-24T00:14:26;6.20;;;5.60;;
4700;SDS011;8724;51.272;6.554;2023-06-24T00:16:55;5.90;;;5.40;;
4700;SDS011;8724;51.272;6.554;2023-06-24T00:19:24;8.57;;;4.50;;
4700;SDS011;8724;51.272;6.554;2023-06-24T00:21:54;6.00;;;5.33;;
4700;SDS011;8724;51.272;6.554;2023-06-24T00:24:23;6.70;;;6.10;;
4700;SDS011;8724;51.272;6.554;2023-06-24T00:26:53;5.40;;;4.90;;
4700;SDS011;8724;51.272;6.554;2023-06-24T00:29:22;5.33;;;4.83;;
4700;SDS011;8724;51.272;6.554;2023-06-24T00:31:51;5.20;;;4.80;;
4700;SDS011;8724;51.272;6.554;2023-06-24T00:34:19;4.77;;;4.30;;
4700;SDS011;8724;51.272;6.554;2023-06-24T00:36:47;5.73;;;5.00;;
4700;SDS011;8724;51.272;6.554;2023-06-24T00:39:16;6.20;;;5.63;;
4700;SDS011;8724;51.272;6.554;2023-06-24T00:41:44;6.27;;;5.77;;
4700;SDS011;8724;51.272;6.554;2023-06-24T00:44:14;6.10;;;5.50;;
4700;SDS011;8724;51.272;6.554;2023-06-24T00:46:42;6.70;;;6.10;;
4700;SDS011;8724;51.272;6.554;2023-06-24T00:49:10;6.20;;;5.63;;
4700;SDS011;8724;51.272;6.554;2023-06-24T00:51:40;7.73;;;5.30;;
4700;SDS011;8724;51.272;6.554;2023-06-24T00:54:17;7.13;;;6.43;;
4700;SDS011;8724;51.272;6.554;2023-06-24T00:56:45;7.00;;;6.40;;
4700;SDS011;8724;51.272;6.554;2023-06-24T00:59:16;7.53;;;5.80;;
4700;SDS011;8724;51.272;6.554;2023-06-24T01:01:46;6.50;;;5.90;;
4700;SDS011;8724;51.272;6.554;2023-06-24T01:04:16;5.93;;;5.43;;
4700;SDS011;8724;51.272;6.554;2023-06-24T01:06:45;5.07;;;4.67;;
4700;SDS011;8724;51.272;6.554;2023-06-24T01:09:14;5.80;;;5.23;;
4700;SDS011;8724;51.272;6.554;2023-06-24T01:11:43;5.33;;;4.83;;
4700;SDS011;8724;51.272;6.554;2023-06-24T01:14:11;5.73;;;5.23;;
4700;SDS011;8724;51.272;6.554;2023-06-24T01:16:44;5.83;;;5.33;;
4700;SDS011;8724;51.272;6.554;2023-06-24T01:19:27;6.17;;;5.67;;
4700;SDS011;8724;51.272;6.554;2023-06-24T01:22:15;6.43;;;5.93;;
4700;SDS011;8724;51.272;6.554;2023-06-24T01:25:06;6.03;;;5.20;;
4700;SDS011;8724;51.272;6.554;2023-06-24T01:27:47;5.97;;;5.43;;
4700;SDS011;8724;51.272;6.554;2023-06-24T01:33:32;7.03;;;6.33;;
4700;SDS011;8724;51.272;6.554;2023-06-24T01:36:09;7.57;;;6.30;;
4700;SDS011;8724;51.272;6.554;2023-06-24T01:38:44;7.73;;;6.73;;
4700;SDS011;8724;51.272;6.554;2023-06-24T01:41:16;6.60;;;6.00;;
4700;SDS011;8724;51.272;6.554;2023-06-24T01:43:49;9.10;;;6.40;;
4700;SDS011;8724;51.272;6.554;2023-06-24T01:46:19;6.60;;;6.00;;
4700;SDS011;8724;51.272;6.554;2023-06-24T01:48:52;7.63;;;6.87;;
4700;SDS011;8724;51.272;6.554;2023-06-24T01:51:23;6.70;;;6.10;;
4700;SDS011;8724;51.272;6.554;2023-06-24T01:53:53;7.40;;;6.80;;
4700;SDS011;8724;51.272;6.554;2023-06-24T01:56:25;8.00;;;6.30;;
4700;SDS011;8724;51.272;6.554;2023-06-24T01:58:56;6.47;;;5.87;;
4700;SDS011;8724;51.272;6.554;2023-06-24T02:01:28;7.20;;;6.33;;
4700;SDS011;8724;51.272;6.554;2023-06-24T02:04:01;6.03;;;5.43;;
4700;SDS011;8724;51.272;6.554;2023-06-24T02:06:31;6.13;;;5.57;;
4700;SDS011;8724;51.272;6.554;2023-06-24T02:09:00;5.97;;;5.37;;
4700;SDS011;8724;51.272;6.554;2023-06-24T02:11:30;6.77;;;5.80;;
4700;SDS011;8724;51.272;6.554;2023-06-24T02:14:01;7.70;;;6.47;;
4700;SDS011;8724;51.272;6.554;2023-06-24T02:16:32;7.70;;;5.70;;
4700;SDS011;8724;51.272;6.554;2023-06-24T02:19:04;6.33;;;5.73;;
4700;SDS011;8724;51.272;6.554;2023-06-24T02:21:34;5.93;;;5.30;;
4700;SDS011;8724;51.272;6.554;2023-06-24T02:24:03;6.50;;;5.23;;
4700;SDS011;8724;51.272;6.554;2023-06-24T02:26:32;6.47;;;5.73;;
4700;SDS011;8724;51.272;6.554;2023-06-24T02:29:04;6.00;;;5.40;;
4700;SDS011;8724;51.272;6.554;2023-06-24T02:31:33;6.77;;;6.00;;
4700;SDS011;8724;51.272;6.554;2023-06-24T02:34:01;5.87;;;5.40;;
4700;SDS011;8724;51.272;6.554;2023-06-24T02:36:31;6.40;;;5.80;;
4700;SDS011;8724;51.272;6.554;2023-06-24T02:39:01;8.43;;;5.90;;
4700;SDS011;8724;51.272;6.554;2023-06-24T02:41:30;6.93;;;6.23;;
4700;SDS011;8724;51.272;6.554;2023-06-24T02:43:58;6.70;;;6.10;;
4700;SDS011;8724;51.272;6.554;2023-06-24T02:46:27;7.20;;;6.47;;
4700;SDS011;8724;51.272;6.554;2023-06-24T02:48:57;6.80;;;6.20;;
4700;SDS011;8724;51.272;6.554;2023-06-24T02:51:26;7.70;;;6.93;;
4700;SDS011;8724;51.272;6.554;2023-06-24T02:53:56;6.90;;;5.70;;
4700;SDS011;8724;51.272;6.554;2023-06-24T02:56:45;8.47;;;7.07;;
4700;SDS011;8724;51.272;6.554;2023-06-24T02:59:23;8.60;;;7.40;;
4700;SDS011;8724;51.272;6.554;2023-06-24T03:01:53;7.53;;;6.73;;
4700;SDS011;8724;51.272;6.554;2023-06-24T03:04:22;7.60;;;6.80;;
4700;SDS011;8724;51.272;6.554;2023-06-24T03:06:50;8.07;;;7.30;;
4700;SDS011;8724;51.272;6.554;2023-06-24T03:09:22;8.23;;;7.43;;
4700;SDS011;8724;51.272;6.554;2023-06-24T03:11:50;6.43;;;5.83;;
4700;SDS011;8724;51.272;6.554;2023-06-24T03:14:30;8.97;;;7.30;;
4700;SDS011;8724;51.272;6.554;2023-06-24T03:16:58;7.70;;;6.97;;
4700;SDS011;8724;51.272;6.554;2023-06-24T03:19:28;9.13;;;7.07;;
4700;SDS011;8724;51.272;6.554;2023-06-24T03:21:56;10.63;;;7.27;;
4700;SDS011;8724;51.272;6.554;2023-06-24T03:24:26;7.20;;;6.33;;
4700;SDS011;8724;51.272;6.554;2023-06-24T03:26:55;8.13;;;6.77;;
4700;SDS011;8724;51.272;6.554;2023-06-24T03:29:35;11.47;;;6.50;;
4700;SDS011;8724;51.272;6.554;2023-06-24T03:32:10;7.40;;;5.80;;
4700;SDS011;8724;51.272;6.554;2023-06-24T03:34:39;11.50;;;6.40;;
4700;SDS011;8724;51.272;6.554;2023-06-24T03:37:09;7.37;;;6.63;;
4700;SDS011;8724;51.272;6.554;2023-06-24T03:39:41;6.50;;;6.00;;
4700;SDS011;8724;51.272;6.554;2023-06-24T03:42:10;8.23;;;6.33;;
4700;SDS011;8724;51.272;6.554;2023-06-24T03:44:38;7.77;;;6.03;;
4700;SDS011;8724;51.272;6.554;2023-06-24T03:47:07;10.10;;;6.43;;
4700;SDS011;8724;51.272;6.554;2023-06-24T03:49:35;6.53;;;4.97;;
4700;SDS011;8724;51.272;6.554;2023-06-24T03:52:05;6.43;;;5.67;;
4700;SDS011;8724;51.272;6.554;2023-06-24T03:54:36;7.07;;;5.77;;
4700;SDS011;8724;51.272;6.554;2023-06-24T03:57:06;7.47;;;6.70;;
4700;SDS011;8724;51.272;6.554;2023-06-24T03:59:35;6.70;;;6.03;;
4700;SDS011;8724;51.272;6.554;2023-06-24T04:02:04;7.87;;;6.30;;
4700;SDS011;8724;51.272;6.554;2023-06-24T04:04:35;7.60;;;6.60;;
4700;SDS011;8724;51.272;6.554;2023-06-24T04:07:03;9.23;;;5.90;;
4700;SDS011;8724;51.272;6.554;2023-06-24T04:09:33;7.30;;;6.20;;
4700;SDS011;8724;51.272;6.554;2023-06-24T04:12:02;10.10;;;6.90;;
4700;SDS011;8724;51.272;6.554;2023-06-24T04:14:34;16.90;;;7.10;;
4700;SDS011;8724;51.272;6.554;2023-06-24T04:17:03;11.00;;;6.93;;
4700;SDS011;8724;51.272;6.554;2023-06-24T04:19:32;10.50;;;6.83;;
4700;SDS011;8724;51.272;6.554;2023-06-24T04:22:00;9.90;;;6.37;;
4700;SDS011;8724;51.272;6.554;2023-06-24T04:24:29;14.23;;;6.30;;
4700;SDS011;8724;51.272;6.554;2023-06-24T04:26:57;11.70;;;7.83;;
4700;SDS011;8724;51.272;6.554;2023-06-24T04:29:26;12.27;;;6.73;;
4700;SDS011;8724;51.272;6.554;2023-06-24T04:31:56;13.00;;;6.90;;
4700;SDS011;8724;51.272;6.554;2023-06-24T04:34:24;15.03;;;7.03;;
4700;SDS011;8724;51.272;6.554;2023-06-24T04:36:53;8.97;;;6.77;;
4700;SDS011;8724;51.272;6.554;2023-06-24T04:39:21;11.27;;;6.50;;
4700;SDS011;8724;51.272;6.554;2023-06-24T04:41:49;14.73;;;7.57;;
4700;SDS011;8724;51.272;6.554;2023-06-24T04:44:18;16.93;;;6.70;;
4700;SDS011;8724;51.272;6.554;2023-06-24T04:46:47;9.20;;;6.20;;
4700;SDS011;8724;51.272;6.554;2023-06-24T04:49:17;7.00;;;6.30;;
4700;SDS011;8724;51.272;6.554;2023-06-24T04:51:45;12.23;;;7.83;;
4700;SDS011;8724;51.272;6.554;2023-06-24T04:54:14;8.37;;;6.57;;
4700;SDS011;8724;51.272;6.554;2023-06-24T04:56:42;11.70;;;6.50;;
4700;SDS011;8724;51.272;6.554;2023-06-24T04:59:14;19.17;;;6.50;;
4700;SDS011;8724;51.272;6.554;2023-06-24T05:01:43;8.30;;;6.03;;
4700;SDS011;8724;51.272;6.554;2023-06-24T05:04:11;9.33;;;7.07;;
4700;SDS011;8724;51.272;6.554;2023-06-24T05:06:41;11.83;;;6.00;;
4700;SDS011;8724;51.272;6.554;2023-06-24T05:09:09;8.50;;;6.23;;
4700;SDS011;8724;51.272;6.554;2023-06-24T05:11:40;14.60;;;6.87;;
4700;SDS011;8724;51.272;6.554;2023-06-24T05:14:08;9.10;;;6.90;;
4700;SDS011;8724;51.272;6.554;2023-06-24T05:16:37;11.67;;;7.10;;
4700;SDS011;8724;51.272;6.554;2023-06-24T05:19:05;9.10;;;7.00;;
4700;SDS011;8724;51.272;6.554;2023-06-24T05:21:33;7.43;;;5.90;;
4700;SDS011;8724;51.272;6.554;2023-06-24T05:24:03;9.00;;;6.83;;
4700;SDS011;8724;51.272;6.554;2023-06-24T05:26:32;11.00;;;6.60;;
4700;SDS011;8724;51.272;6.554;2023-06-24T05:29:01;8.20;;;6.07;;
4700;SDS011;8724;51.272;6.554;2023-06-24T05:31:29;11.93;;;8.30;;
4700;SDS011;8724;51.272;6.554;2023-06-24T05:33:58;9.23;;;6.00;;
4700;SDS011;8724;51.272;6.554;2023-06-24T05:36:26;8.40;;;6.83;;
4700;SDS011;8724;51.272;6.554;2023-06-24T05:38:54;8.70;;;7.80;;
4700;SDS011;8724;51.272;6.554;2023-06-24T05:41:24;8.87;;;7.83;;
4700;SDS011;8724;51.272;6.554;2023-06-24T05:44:00;7.87;;;7.07;;
4700;SDS011;8724;51.272;6.554;2023-06-24T05:46:29;8.03;;;7.20;;
4700;SDS011;8724;51.272;6.554;2023-06-24T05:48:58;8.77;;;7.53;;
4700;SDS011;8724;51.272;6.554;2023-06-24T05:51:26;9.70;;;7.60;;
4700;SDS011;8724;51.272;6.554;2023-06-24T05:53:54;10.13;;;7.90;;
4700;SDS011;8724;51.272;6.554;2023-06-24T05:56:22;9.20;;;8.30;;
4700;SDS011;8724;51.272;6.554;2023-06-24T05:58:53;9.13;;;8.23;;
4700;SDS011;8724;51.272;6.554;2023-06-24T06:01:21;10.33;;;8.87;;
4700;SDS011;8724;51.272;6.554;2023-06-24T06:03:49;8.77;;;7.97;;
4700;SDS011;8724;51.272;6.554;2023-06-24T06:06:18;11.40;;;8.80;;
4700;SDS011;8724;51.272;6.554;2023-06-24T06:08:46;9.77;;;8.77;;
4700;SDS011;8724;51.272;6.554;2023-06-24T06:11:14;7.80;;;7.10;;
4700;SDS011;8724;51.272;6.554;2023-06-24T06:13:44;9.10;;;8.10;;
4700;SDS011;8724;51.272;6.554;2023-06-24T06:16:12;10.67;;;8.00;;
4700;SDS011;8724;51.272;6.554;2023-06-24T06:18:41;7.23;;;6.40;;
4700;SDS011;8724;51.272;6.554;2023-06-24T06:21:09;6.87;;;6.33;;
4700;SDS011;8724;51.272;6.554;2023-06-24T06:23:37;6.97;;;6.27;;
4700;SDS011;8724;51.272;6.554;2023-06-24T06:26:05;8.60;;;7.80;;
4700;SDS011;8724;51.272;6.554;2023-06-24T06:28:34;6.43;;;5.83;;
4700;SDS011;8724;51.272;6.554;2023-06-24T06:31:04;7.77;;;6.97;;
4700;SDS011;8724;51.272;6.554;2023-06-24T06:33:32;7.57;;;6.87;;
4700;SDS011;8724;51.272;6.554;2023-06-24T06:36:00;7.50;;;6.23;;
4700;SDS011;8724;51.272;6.554;2023-06-24T06:38:29;6.03;;;5.53;;
4700;SDS011;8724;51.272;6.554;2023-06-24T06:40:57;5.97;;;5.20;;
4700;SDS011;8724;51.272;6.554;2023-06-24T06:43:25;6.93;;;5.90;;
4700;SDS011;8724;51.272;6.554;2023-06-24T06:45:53;7.07;;;6.40;;
4700;SDS011;8724;51.272;6.554;2023-06-24T06:48:23;5.10;;;4.70;;
4700;SDS011;8724;51.272;6.554;2023-06-24T06:50:52;4.67;;;4.03;;
4700;SDS011;8724;51.272;6.554;2023-06-24T06:53:20;5.77;;;4.83;;
4700;SDS011;8724;51.272;6.554;2023-06-24T06:55:49;4.73;;;4.30;;
4700;SDS011;8724;51.272;6.554;2023-06-24T06:58:17;4.67;;;4.20;;
4700;SDS011;8724;51.272;6.554;2023-06-24T07:00:45;5.30;;;4.80;;
4700;SDS011;8724;51.272;6.554;2023-06-24T07:03:14;5.40;;;4.70;;
4700;SDS011;8724;51.272;6.554;2023-06-24T07:05:43;5.90;;;4.93;;
4700;SDS011;8724;51.272;6.554;2023-06-24T07:08:13;4.93;;;4.43;;
4700;SDS011;8724;51.272;6.554;2023-06-24T07:10:41;6.23;;;4.80;;
4700;SDS011;8724;51.272;6.554;2023-06-24T07:13:09;3.70;;;3.33;;
4700;SDS011;8724;51.272;6.554;2023-06-24T07:15:38;4.00;;;3.60;;
4700;SDS011;8724;51.272;6.554;2023-06-24T07:18:06;5.07;;;4.67;;
4700;SDS011;8724;51.272;6.554;2023-06-24T07:20:34;5.03;;;4.30;;
4700;SDS011;8724;51.272;6.554;2023-06-24T07:23:04;4.40;;;3.40;;
4700;SDS011;8724;51.272;6.554;2023-06-24T07:25:32;4.87;;;4.47;;
4700;SDS011;8724;51.272;6.554;2023-06-24T07:28:02;3.80;;;3.50;;
4700;SDS011;8724;51.272;6.554;2023-06-24T07:30:30;5.10;;;4.57;;
4700;SDS011;8724;51.272;6.554;2023-06-24T07:32:59;4.10;;;3.57;;
4700;SDS011;8724;51.272;6.554;2023-06-24T07:35:32;3.40;;;3.10;;
4700;SDS011;8724;51.272;6.554;2023-06-24T07:38:00;4.90;;;3.97;;
4700;SDS011;8724;51.272;6.554;2023-06-24T07:40:30;4.70;;;4.13;;
4700;SDS011;8724;51.272;6.554;2023-06-24T07:42:58;5.37;;;3.97;;
4700;SDS011;8724;51.272;6.554;2023-06-24T07:45:27;3.23;;;2.97;;
4700;SDS011;8724;51.272;6.554;2023-06-24T07:47:55;3.53;;;3.23;;
4700;SDS011;8724;51.272;6.554;2023-06-24T07:50:24;5.47;;;4.00;;
4700;SDS011;8724;51.272;6.554;2023-06-24T07:52:52;3.30;;;3.00;;
4700;SDS011;8724;51.272;6.554;2023-06-24T07:55:20;4.53;;;3.33;;
4700;SDS011;8724;51.272;6.554;2023-06-24T07:57:50;4.67;;;4.17;;
4700;SDS011;8724;51.272;6.554;2023-06-24T08:00:18;6.70;;;4.37;;
4700;SDS011;8724;51.272;6.554;2023-06-24T08:02:47;6.67;;;5.57;;
4700;SDS011;8724;51.272;6.554;2023-06-24T08:05:15;6.03;;;4.70;;
4700;SDS011;8724;51.272;6.554;2023-06-24T08:07:45;7.13;;;5.23;;
4700;SDS011;8724;51.272;6.554;2023-06-24T08:10:14;5.70;;;5.10;;
4700;SDS011;8724;51.272;6.554;2023-06-24T08:12:42;6.27;;;4.83;;
4700;SDS011;8724;51.272;6.554;2023-06-24T08:15:12;5.30;;;4.73;;
4700;SDS011;8724;51.272;6.554;2023-06-24T08:17:41;4.83;;;4.50;;
4700;SDS011;8724;51.272;6.554;2023-06-24T08:20:10;4.33;;;4.03;;
4700;SDS011;8724;51.272;6.554;2023-06-24T08:22:39;5.40;;;4.90;;
4700;SDS011;8724;51.272;6.554;2023-06-24T08:25:07;8.10;;;5.67;;
4700;SDS011;8724;51.272;6.554;2023-06-24T08:27:36;6.57;;;5.60;;
4700;SDS011;8724;51.272;6.554;2023-06-24T08:30:04;5.53;;;5.03;;
4700;SDS011;8724;51.272;6.554;2023-06-24T08:32:35;4.60;;;4.20;;
4700;SDS011;8724;51.272;6.554;2023-06-24T08:35:04;4.10;;;3.73;;
4700;SDS011;8724;51.272;6.554;2023-06-24T08:37:33;6.37;;;4.20;;
4700;SDS011;8724;51.272;6.554;2023-06-24T08:40:01;6.40;;;5.70;;
4700;SDS011;8724;51.272;6.554;2023-06-24T08:42:32;7.00;;;6.30;;
4700;SDS011;8724;51.272;6.554;2023-06-24T08:45:01;5.07;;;4.57;;
4700;SDS011;8724;51.272;6.554;2023-06-24T08:47:30;7.97;;;5.93;;
4700;SDS011;8724;51.272;6.554;2023-06-24T08:50:01;4.93;;;4.43;;
4700;SDS011;8724;51.272;6.554;2023-06-24T08:52:32;5.40;;;4.53;;
4700;SDS011;8724;51.272;6.554;2023-06-24T08:55:04;6.23;;;4.63;;
4700;SDS011;8724;51.272;6.554;2023-06-24T08:57:37;5.17;;;4.67;;
4700;SDS011;8724;51.272;6.554;2023-06-24T09:00:06;6.00;;;5.40;;
4700;SDS011;8724;51.272;6.554;2023-06-24T09:02:36;5.27;;;4.07;;
4700;SDS011;8724;51.272;6.554;2023-06-24T09:05:07;8.40;;;7.53;;
4700;SDS011;8724;51.272;6.554;2023-06-24T09:07:36;7.60;;;5.70;;
4700;SDS011;8724;51.272;6.554;2023-06-24T09:10:05;7.57;;;5.47;;
4700;SDS011;8724;51.272;6.554;2023-06-24T09:12:34;6.63;;;5.70;;
4700;SDS011;8724;51.272;6.554;2023-06-24T09:15:03;5.87;;;5.30;;
4700;SDS011;8724;51.272;6.554;2023-06-24T09:17:32;5.27;;;4.77;;
4700;SDS011;8724;51.272;6.554;2023-06-24T09:20:04;8.60;;;5.20;;
4700;SDS011;8724;51.272;6.554;2023-06-24T09:22:36;6.33;;;4.93;;
4700;SDS011;8724;51.272;6.554;2023-06-24T09:25:08;5.80;;;4.90;;
4700;SDS011;8724;51.272;6.554;2023-06-24T09:27:36;6.27;;;4.70;;
4700;SDS011;8724;51.272;6.554;2023-06-24T09:30:15;5.43;;;4.93;;
4700;SDS011;8724;51.272;6.554;2023-06-24T09:32:46;5.47;;;4.50;;
4700;SDS011;8724;51.272;6.554;2023-06-24T09:35:17;5.63;;;4.73;;
4700;SDS011;8724;51.272;6.554;2023-06-24T09:37:50;3.90;;;3.50;;
4700;SDS011;8724;51.272;6.554;2023-06-24T09:40:19;6.53;;;5.67;;
4700;SDS011;8724;51.272;6.554;2023-06-24T09:42:48;17.17;;;5.80;;
4700;SDS011;8724;51.272;6.554;2023-06-24T09:45:22;4.83;;;4.33;;
4700;SDS011;8724;51.272;6.554;2023-06-24T09:47:51;6.20;;;4.70;;
4700;SDS011;8724;51.272;6.554;2023-06-24T09:50:21;4.80;;;4.40;;
4700;SDS011;8724;51.272;6.554;2023-06-24T09:52:50;4.97;;;4.50;;
4700;SDS011;8724;51.272;6.554;2023-06-24T09:55:24;8.70;;;5.50;;
4700;SDS011;8724;51.272;6.554;2023-06-24T09:57:53;5.40;;;4.63;;
4700;SDS011;8724;51.272;6.554;2023-06-24T10:00:21;4.43;;;4.00;;
4700;SDS011;8724;51.272;6.554;2023-06-24T10:02:52;4.07;;;3.77;;
4700;SDS011;8724;51.272;6.554;2023-06-24T10:05:27;6.77;;;4.07;;
4700;SDS011;8724;51.272;6.554;2023-06-24T10:07:56;4.90;;;4.30;;
4700;SDS011;8724;51.272;6.554;2023-06-24T10:10:24;3.83;;;3.50;;
4700;SDS011;8724;51.272;6.554;2023-06-24T10:12:52;4.70;;;3.90;;
4700;SDS011;8724;51.272;6.554;2023-06-24T10:15:21;6.40;;;4.33;;
4700;SDS011;8724;51.272;6.554;2023-06-24T10:17:50;4.50;;;4.20;;
4700;SDS011;8724;51.272;6.554;2023-06-24T10:20:38;5.43;;;4.10;;
4700;SDS011;8724;51.272;6.554;2023-06-24T10:23:07;4.77;;;3.77;;
4700;SDS011;8724;51.272;6.554;2023-06-24T10:25:35;3.50;;;3.20;;
4700;SDS011;8724;51.272;6.554;2023-06-24T10:28:04;5.20;;;3.80;;
4700;SDS011;8724;51.272;6.554;2023-06-24T10:30:33;3.90;;;3.33;;
4700;SDS011;8724;51.272;6.554;2023-06-24T10:33:03;4.13;;;3.73;;
4700;SDS011;8724;51.272;6.554;2023-06-24T10:35:41;4.10;;;3.80;;
4700;SDS011;8724;51.272;6.554;2023-06-24T10:38:10;3.60;;;3.30;;
4700;SDS011;8724;51.272;6.554;2023-06-24T10:40:39;3.10;;;2.80;;
4700;SDS011;8724;51.272;6.554;2023-06-24T10:46:07;3.27;;;3.07;;
4700;SDS011;8724;51.272;6.554;2023-06-24T10:48:43;3.77;;;3.43;;
4700;SDS011;8724;51.272;6.554;2023-06-24T10:51:12;4.60;;;3.10;;
4700;SDS011;8724;51.272;6.554;2023-06-24T10:53:41;2.47;;;2.27;;
4700;SDS011;8724;51.272;6.554;2023-06-24T10:56:09;3.43;;;3.13;;
4700;SDS011;8724;51.272;6.554;2023-06-24T10:58:37;3.83;;;2.97;;
4700;SDS011;8724;51.272;6.554;2023-06-24T11:01:06;2.97;;;2.77;;
4700;SDS011;8724;51.272;6.554;2023-06-24T11:03:36;10.50;;;3.03;;
4700;SDS011;8724;51.272;6.554;2023-06-24T11:06:09;2.90;;;2.60;;
4700;SDS011;8724;51.272;6.554;2023-06-24T11:08:44;2.90;;;2.70;;
4700;SDS011;8724;51.272;6.554;2023-06-24T11:11:19;2.80;;;2.60;;
4700;SDS011;8724;51.272;6.554;2023-06-24T11:13:49;3.40;;;3.10;;
4700;SDS011;8724;51.272;6.554;2023-06-24T11:16:20;2.80;;;2.60;;
4700;SDS011;8724;51.272;6.554;2023-06-24T11:18:49;3.57;;;3.27;;
4700;SDS011;8724;51.272;6.554;2023-06-24T11:21:17;3.63;;;3.33;;
4700;SDS011;8724;51.272;6.554;2023-06-24T11:23:47;3.50;;;3.20;;
4700;SDS011;8724;51.272;6.554;2023-06-24T11:26:15;4.70;;;3.43;;
4700;SDS011;8724;51.272;6.554;2023-06-24T11:28:44;3.43;;;2.90;;
4700;SDS011;8724;51.272;6.554;2023-06-24T11:31:12;3.63;;;3.33;;
4700;SDS011;8724;51.272;6.554;2023-06-24T11:33:41;3.23;;;2.93;;
4700;SDS011;8724;51.272;6.554;2023-06-24T11:36:09;3.20;;;2.93;;
4700;SDS011;8724;51.272;6.554;2023-06-24T11:38:39;3.13;;;2.93;;
4700;SDS011;8724;51.272;6.554;2023-06-24T11:41:10;2.83;;;2.63;;
4700;SDS011;8724;51.272;6.554;2023-06-24T11:43:43;3.33;;;3.03;;
4700;SDS011;8724;51.272;6.554;2023-06-24T11:46:20;3.43;;;3.13;;
4700;SDS011;8724;51.272;6.554;2023-06-24T11:48:49;2.90;;;2.70;;
4700;SDS011;8724;51.272;6.554;2023-06-24T11:51:17;3.03;;;2.83;;
4700;SDS011;8724;51.272;6.554;2023-06-24T11:53:46;3.13;;;2.80;;
4700;SDS011;8724;51.272;6.554;2023-06-24T11:56:15;2.40;;;2.20;;
4700;SDS011;8724;51.272;6.554;2023-06-24T11:58:44;2.33;;;2.20;;
4700;SDS011;8724;51.272;6.554;2023-06-24T12:01:17;2.80;;;2.50;;
4700;SDS011;8724;51.272;6.554;2023-06-24T12:03:46;2.53;;;2.30;;
4700;SDS011;8724;51.272;6.554;2023-06-24T12:06:14;2.17;;;2.07;;
4700;SDS011;8724;51.272;6.554;2023-06-24T12:08:43;2.17;;;2.07;;
4700;SDS011;8724;51.272;6.554;2023-06-24T12:11:19;3.00;;;2.43;;
4700;SDS011;8724;51.272;6.554;2023-06-24T12:13:47;3.37;;;3.07;;
4700;SDS011;8724;51.272;6.554;2023-06-24T12:16:16;2.67;;;2.43;;
4700;SDS011;8724;51.272;6.554;2023-06-24T12:18:44;2.67;;;2.37;;
4700;SDS011;8724;51.272;6.554;2023-06-24T12:21:12;2.53;;;2.33;;
4700;SDS011;8724;51.272;6.554;2023-06-24T12:23:41;2.80;;;1.87;;
4700;SDS011;8724;51.272;6.554;2023-06-24T12:26:09;3.00;;;2.07;;
4700;SDS011;8724;51.272;6.554;2023-06-24T12:28:39;2.60;;;2.40;;
4700;SDS011;8724;51.272;6.554;2023-06-24T12:31:07;2.40;;;2.20;;
4700;SDS011;8724;51.272;6.554;2023-06-24T12:33:36;2.43;;;2.23;;
4700;SDS011;8724;51.272;6.554;2023-06-24T12:36:04;2.10;;;1.90;;
4700;SDS011;8724;51.272;6.554;2023-06-24T12:38:32;2.60;;;2.40;;
4700;SDS011;8724;51.272;6.554;2023-06-24T12:41:02;2.30;;;2.10;;
4700;SDS011;8724;51.272;6.554;2023-06-24T12:43:32;2.90;;;1.93;;
4700;SDS011;8724;51.272;6.554;2023-06-24T12:46:02;2.00;;;1.87;;
4700;SDS011;8724;51.272;6.554;2023-06-24T12:48:30;2.30;;;1.90;;
4700;SDS011;8724;51.272;6.554;2023-06-24T12:50:58;1.73;;;1.63;;
4700;SDS011;8724;51.272;6.554;2023-06-24T12:53:27;3.33;;;2.67;;
4700;SDS011;8724;51.272;6.554;2023-06-24T12:55:55;2.00;;;1.80;;
4700;SDS011;8724;51.272;6.554;2023-06-24T12:58:24;2.03;;;1.93;;
4700;SDS011;8724;51.272;6.554;2023-06-24T13:00:52;2.10;;;1.93;;
4700;SDS011;8724;51.272;6.554;2023-06-24T13:03:22;1.67;;;1.57;;
4700;SDS011;8724;51.272;6.554;2023-06-24T13:05:51;2.50;;;2.00;;
4700;SDS011;8724;51.272;6.554;2023-06-24T13:08:20;2.40;;;2.20;;
4700;SDS011;8724;51.272;6.554;2023-06-24T13:10:48;2.00;;;1.90;;
4700;SDS011;8724;51.272;6.554;2023-06-24T13:13:16;2.20;;;2.10;;
4700;SDS011;8724;51.272;6.554;2023-06-24T13:15:45;2.33;;;2.13;;
4700;SDS011;8724;51.272;6.554;2023-06-24T13:18:13;2.07;;;1.97;;
4700;SDS011;8724;51.272;6.554;2023-06-24T13:20:42;2.83;;;2.60;;
4700;SDS011;8724;51.272;6.554;2023-06-24T13:23:11;2.53;;;2.33;;
4700;SDS011;8724;51.272;6.554;2023-06-24T13:25:40;4.13;;;2.50;;
4700;SDS011;8724;51.272;6.554;2023-06-24T13:28:09;2.27;;;2.17;;
4700;SDS011;8724;51.272;6.554;2023-06-24T13:30:37;3.27;;;2.07;;
4700;SDS011;8724;51.272;6.554;2023-06-24T13:33:05;2.30;;;2.10;;
4700;SDS011;8724;51.272;6.554;2023-06-24T13:35:34;3.27;;;2.77;;
4700;SDS011;8724;51.272;6.554;2023-06-24T13:38:03;2.80;;;2.60;;
4700;SDS011;8724;51.272;6.554;2023-06-24T13:40:34;2.70;;;2.40;;
4700;SDS011;8724;51.272;6.554;2023-06-24T13:43:02;5.23;;;2.47;;
4700;SDS011;8724;51.272;6.554;2023-06-24T13:45:31;3.90;;;2.33;;
4700;SDS011;8724;51.272;6.554;2023-06-24T13:47:59;2.50;;;2.30;;
4700;SDS011;8724;51.272;6.554;2023-06-24T13:50:28;2.83;;;2.10;;
4700;SDS011;8724;51.272;6.554;2023-06-24T13:52:56;2.73;;;2.37;;
4700;SDS011;8724;51.272;6.554;2023-06-24T13:55:26;3.10;;;2.50;;
4700;SDS011;8724;51.272;6.554;2023-06-24T13:57:55;2.33;;;2.23;;
4700;SDS011;8724;51.272;6.554;2023-06-24T14:00:23;2.67;;;2.47;;
4700;SDS011;8724;51.272;6.554;2023-06-24T14:02:52;2.03;;;1.93;;
4700;SDS011;8724;51.272;6.554;2023-06-24T14:05:20;2.23;;;1.70;;
4700;SDS011;8724;51.272;6.554;2023-06-24T14:07:49;2.20;;;2.00;;
4700;SDS011;8724;51.272;6.554;2023-06-24T14:10:19;2.60;;;2.40;;
4700;SDS011;8724;51.272;6.554;2023-06-24T14:12:49;2.33;;;2.13;;
4700;SDS011;8724;51.272;6.554;2023-06-24T14:15:18;2.67;;;2.43;;
4700;SDS011;8724;51.272;6.554;2023-06-24T14:17:46;3.53;;;2.53;;
4700;SDS011;8724;51.272;6.554;2023-06-24T14:20:15;2.40;;;2.20;;
4700;SDS011;8724;51.272;6.554;2023-06-24T14:22:43;2.70;;;2.20;;
4700;SDS011;8724;51.272;6.554;2023-06-24T14:25:11;2.03;;;1.93;;
4700;SDS011;8724;51.272;6.554;2023-06-24T14:27:40;2.87;;;2.30;;
4700;SDS011;8724;51.272;6.554;2023-06-24T14:30:10;2.17;;;1.90;;
4700;SDS011;8724;51.272;6.554;2023-06-24T14:32:39;2.40;;;2.30;;
4700;SDS011;8724;51.272;6.554;2023-06-24T14:35:07;2.57;;;1.90;;
4700;SDS011;8724;51.272;6.554;2023-06-24T14:37:36;2.03;;;1.93;;
4700;SDS011;8724;51.272;6.554;2023-06-24T14:40:05;2.73;;;2.13;;
4700;SDS011;8724;51.272;6.554;2023-06-24T14:42:35;2.27;;;2.00;;
4700;SDS011;8724;51.272;6.554;2023-06-24T14:45:03;1.90;;;1.80;;
4700;SDS011;8724;51.272;6.554;2023-06-24T14:47:34;2.20;;;2.00;;
4700;SDS011;8724;51.272;6.554;2023-06-24T14:50:02;2.50;;;2.30;;
4700;SDS011;8724;51.272;6.554;2023-06-24T14:52:31;2.40;;;2.10;;
4700;SDS011;8724;51.272;6.554;2023-06-24T14:55:00;2.80;;;2.60;;
4700;SDS011;8724;51.272;6.554;2023-06-24T14:57:28;3.83;;;2.07;;
4700;SDS011;8724;51.272;6.554;2023-06-24T14:59:56;2.17;;;1.97;;
4700;SDS011;8724;51.272;6.554;2023-06-24T15:02:24;1.90;;;1.80;;
4700;SDS011;8724;51.272;6.554;2023-06-24T15:04:54;2.43;;;2.23;;
4700;SDS011;8724;51.272;6.554;2023-06-24T15:07:22;1.93;;;1.83;;
4700;SDS011;8724;51.272;6.554;2023-06-24T15:09:51;2.10;;;2.00;;
4700;SDS011;8724;51.272;6.554;2023-06-24T15:12:19;2.00;;;1.90;;
4700;SDS011;8724;51.272;6.554;2023-06-24T15:14:48;2.57;;;2.37;;
4700;SDS011;8724;51.272;6.554;2023-06-24T15:17:16;2.23;;;2.10;;
4700;SDS011;8724;51.272;6.554;2023-06-24T15:19:44;1.97;;;1.87;;
4700;SDS011;8724;51.272;6.554;2023-06-24T15:22:14;2.40;;;2.23;;
4700;SDS011;8724;51.272;6.554;2023-06-24T15:24:42;2.03;;;1.93;;
4700;SDS011;8724;51.272;6.554;2023-06-24T15:27:12;6.13;;;5.50;;
4700;SDS011;8724;51.272;6.554;2023-06-24T15:29:40;4.60;;;4.30;;
4700;SDS011;8724;51.272;6.554;2023-06-24T15:32:08;8.07;;;7.37;;
4700;SDS011;8724;51.272;6.554;2023-06-24T15:34:37;6.40;;;5.90;;
4700;SDS011;8724;51.272;6.554;2023-06-24T15:37:05;5.60;;;4.43;;